LGKRLGZA

Guest
Details From LGKR - Ioannis Kapodistrias Intl
To LGZA - Zakinthos Dionysios Solomos
Flight Number -
Tags Routegen Generated
Created
Modified
Stats Distance 119 nm / 221 km
Max Altitude 400 ft / 122 m
Waypoints 6
Social Downloads 11
Likes 0
Share VATSIM

Download

Looking for another format? Having issues loading an existing format? Contact us
Advertisement - Login to hide

Notes

Departing runway 16 LGKR. Arriving runway 16 LGZA.

Route

LGKR +39.52_+019.93 +39.47_+019.97 +38.82_+020.32 +37.83_+020.85 LGZA

ID Type Via Altitude Latitude Longitude Leg Dist Tot Dist Heading (true) Name
O LGKR APT - 400 ft / 122 m 39.59128˚ 19.91461˚ - 0 nm - -
+39.52_+019.93 LATLON - 400 ft / 122 m 39.52028˚ 19.93281˚ 4 nm 4 nm 169° / 169° -
+39.47_+019.97 LATLON - 400 ft / 122 m 39.47075˚ 19.97165˚ 3 nm 7 nm 149° / 149° -
+38.82_+020.32 LATLON - 400 ft / 122 m 38.82285˚ 20.32435˚ 42 nm 50 nm 157° / 157° -
+37.83_+020.85 LATLON - 400 ft / 122 m 37.82988˚ 20.85460˚ 64 nm 114 nm 157° / 157° -
O LGZA APT - 0 ft / 0 m 37.76048˚ 20.88054˚ 4 nm 119 nm 164° / 164° -

Altitude Profile

Advertisement - Login to hide

LGKR

Details ICAO LGKR (CFU)
Name IOANNIS KAPODISTRIAS INTL
Region Greece
Timezone Europe/Athens (UTC+2.0)
Stats Elevation 6 ft / 2 m (AMSL)
Location 39.601779° 19.911908°
Runways 1
Magnetic Variation 4.098° E

METAR

LGKR 151150Z 17012KT 9999 SCT015 BKN030 BKN080 16/12 Q1014 NOSIG

Decode

TAF

TAF LGKR 151100Z 1512/1612 16018KT 9999 SCT010 SCT020 BKN080 PROB40 TEMPO 1512/1612 5000 RA BKN025 BKN080 PROB30 TEMPO 1606/1612 4000 TSRA FEW008 FEW018CB BKN030

Decode

Departure Runways

ID Width Length Bearing (true) Bearing (mag) Surface Threshold Offset Overrun Length
17 148 ft / 45 m 7,815 ft / 2,382 m 168.81° 164.71° Asphalt 1,348 ft / 411 m 0 ft / 0 m
35 148 ft / 45 m 7,815 ft / 2,382 m 348.81° 344.71° Asphalt 213 ft / 65 m 0 ft / 0 m

LGZA

Details ICAO LGZA (ZTH)
Name Dionysios Solomos
Region Greece
Timezone Europe/Athens (UTC+2.0)
Stats Elevation 14 ft / 4 m (AMSL)
Location 37.751230° 20.884106°
Runways 1
Magnetic Variation 4.072° E

METAR

LGZA 151150Z VRB03KT 9999 FEW025 SCT070 18/11 Q1017

Decode

TAF

Not found

Destination Runways

ID Width Length Bearing (true) Bearing (mag) Surface Threshold Offset Overrun Length
16 148 ft / 45 m 7,315 ft / 2,230 m 163.49° 159.42° Asphalt 715 ft / 218 m 112 ft / 34 m
34 148 ft / 45 m 7,315 ft / 2,230 m 343.49° 339.42° Asphalt 728 ft / 222 m 135 ft / 41 m

Popular Alternatives